sensor_id;sensor_type;location;lat;lon;timestamp;pressure;altitude;pressure_sealevel;temperature;humidity
36380;BME280;22411;53.016;18.632;2022-09-20T00:01:14;100315.47;;;8.21;100.00
36380;BME280;22411;53.016;18.632;2022-09-20T00:03:43;100320.72;;;8.20;100.00
36380;BME280;22411;53.016;18.632;2022-09-20T00:06:11;100316.88;;;8.12;100.00
36380;BME280;22411;53.016;18.632;2022-09-20T00:08:37;100317.75;;;8.11;100.00
36380;BME280;22411;53.016;18.632;2022-09-20T00:11:09;100315.00;;;8.15;100.00
36380;BME280;22411;53.016;18.632;2022-09-20T00:13:37;100325.50;;;8.11;100.00
36380;BME280;22411;53.016;18.632;2022-09-20T00:16:05;100316.31;;;8.07;100.00
36380;BME280;22411;53.016;18.632;2022-09-20T00:18:31;100323.41;;;8.04;100.00
36380;BME280;22411;53.016;18.632;2022-09-20T00:20:57;100329.56;;;8.01;100.00
36380;BME280;22411;53.016;18.632;2022-09-20T00:23:22;100329.56;;;8.01;100.00
36380;BME280;22411;53.016;18.632;2022-09-20T00:25:56;100325.44;;;7.99;100.00
36380;BME280;22411;53.016;18.632;2022-09-20T00:28:23;100327.09;;;8.00;100.00
36380;BME280;22411;53.016;18.632;2022-09-20T00:30:51;100324.41;;;8.01;100.00
36380;BME280;22411;53.016;18.632;2022-09-20T00:33:17;100328.13;;;7.97;100.00
36380;BME280;22411;53.016;18.632;2022-09-20T00:35:44;100331.53;;;7.98;100.00
36380;BME280;22411;53.016;18.632;2022-09-20T00:38:10;100338.34;;;7.99;100.00
36380;BME280;22411;53.016;18.632;2022-09-20T00:40:41;100338.34;;;7.99;100.00
36380;BME280;22411;53.016;18.632;2022-09-20T00:43:13;100329.06;;;7.96;100.00
36380;BME280;22411;53.016;18.632;2022-09-20T00:45:42;100339.28;;;7.98;100.00
36380;BME280;22411;53.016;18.632;2022-09-20T00:48:36;100339.28;;;7.98;100.00
36380;BME280;22411;53.016;18.632;2022-09-20T00:51:07;100339.06;;;8.01;100.00
36380;BME280;22411;53.016;18.632;2022-09-20T00:53:38;100345.00;;;8.03;100.00
36380;BME280;22411;53.016;18.632;2022-09-20T00:56:15;100344.22;;;8.01;100.00
36380;BME280;22411;53.016;18.632;2022-09-20T00:58:45;100345.81;;;8.03;100.00
36380;BME280;22411;53.016;18.632;2022-09-20T01:01:14;100346.91;;;7.99;100.00
36380;BME280;22411;53.016;18.632;2022-09-20T01:03:41;100341.03;;;7.97;100.00
36380;BME280;22411;53.016;18.632;2022-09-20T01:06:10;100334.22;;;7.96;100.00
36380;BME280;22411;53.016;18.632;2022-09-20T01:08:39;100336.78;;;7.96;100.00
36380;BME280;22411;53.016;18.632;2022-09-20T01:11:06;100341.84;;;7.98;100.00
36380;BME280;22411;53.016;18.632;2022-09-20T01:13:32;100336.78;;;7.96;100.00
36380;BME280;22411;53.016;18.632;2022-09-20T01:15:58;100341.03;;;7.97;100.00
36380;BME280;22411;53.016;18.632;2022-09-20T01:18:26;100335.22;;;7.94;100.00
36380;BME280;22411;53.016;18.632;2022-09-20T01:20:54;100339.66;;;7.92;100.00
36380;BME280;22411;53.016;18.632;2022-09-20T01:23:37;100343.59;;;7.97;100.00
36380;BME280;22411;53.016;18.632;2022-09-20T01:29:21;100335.03;;;7.97;100.00
36380;BME280;22411;53.016;18.632;2022-09-20T01:31:57;100329.78;;;7.98;100.00
36380;BME280;22411;53.016;18.632;2022-09-20T01:34:27;100335.03;;;7.97;100.00
36380;BME280;22411;53.016;18.632;2022-09-20T01:37:21;100330.44;;;8.02;100.00
36380;BME280;22411;53.016;18.632;2022-09-20T01:40:12;100331.88;;;8.06;100.00
36380;BME280;22411;53.016;18.632;2022-09-20T01:42:47;100326.72;;;8.06;100.00
36380;BME280;22411;53.016;18.632;2022-09-20T01:45:30;100333.72;;;8.04;100.00
36380;BME280;22411;53.016;18.632;2022-09-20T01:48:05;100331.06;;;8.05;100.00
36380;BME280;22411;53.016;18.632;2022-09-20T02:13:10;100333.56;;;7.93;100.00
36380;BME280;22411;53.016;18.632;2022-09-20T02:21:37;100336.69;;;7.83;100.00
36380;BME280;22411;53.016;18.632;2022-09-20T02:29:45;100351.81;;;7.75;100.00
36380;BME280;22411;53.016;18.632;2022-09-20T02:43:46;100365.84;;;7.70;100.00
36380;BME280;22411;53.016;18.632;2022-09-20T02:52:39;100371.31;;;7.65;100.00
36380;BME280;22411;53.016;18.632;2022-09-20T02:57:24;100370.91;;;7.57;100.00
36380;BME280;22411;53.016;18.632;2022-09-20T02:59:58;100379.00;;;7.51;100.00
36380;BME280;22411;53.016;18.632;2022-09-20T03:20:48;100376.28;;;7.38;100.00
36380;BME280;22411;53.016;18.632;2022-09-20T03:26:23;100377.66;;;7.29;100.00
36380;BME280;22411;53.016;18.632;2022-09-20T03:29:08;100383.66;;;7.30;100.00
36380;BME280;22411;53.016;18.632;2022-09-20T03:32:16;100391.47;;;7.28;100.00
36380;BME280;22411;53.016;18.632;2022-09-20T03:37:30;100385.66;;;7.25;100.00
36380;BME280;22411;53.016;18.632;2022-09-20T03:43:15;100387.56;;;7.21;100.00
36380;BME280;22411;53.016;18.632;2022-09-20T03:45:59;100386.81;;;7.19;100.00
36380;BME280;22411;53.016;18.632;2022-09-20T03:51:21;100387.75;;;7.18;100.00
36380;BME280;22411;53.016;18.632;2022-09-20T04:04:57;100404.53;;;7.10;100.00
36380;BME280;22411;53.016;18.632;2022-09-20T04:13:14;100395.97;;;7.09;100.00
36380;BME280;22411;53.016;18.632;2022-09-20T04:24:21;100410.72;;;7.07;100.00
36380;BME280;22411;53.016;18.632;2022-09-20T04:27:04;100413.88;;;7.12;100.00
36380;BME280;22411;53.016;18.632;2022-09-20T04:29:46;100414.59;;;7.14;100.00
36380;BME280;22411;53.016;18.632;2022-09-20T04:32:24;100415.28;;;7.18;100.00
36380;BME280;22411;53.016;18.632;2022-09-20T04:35:13;100415.19;;;7.19;100.00
36380;BME280;22411;53.016;18.632;2022-09-20T04:38:02;100414.50;;;7.16;100.00
36380;BME280;22411;53.016;18.632;2022-09-20T04:40:43;100417.75;;;7.19;100.00
36380;BME280;22411;53.016;18.632;2022-09-20T05:05:55;100443.06;;;7.43;100.00
36380;BME280;22411;53.016;18.632;2022-09-20T05:16:33;100456.84;;;7.57;100.00
36380;BME280;22411;53.016;18.632;2022-09-20T05:28:07;100475.38;;;7.64;100.00
36380;BME280;22411;53.016;18.632;2022-09-20T05:33:14;100486.78;;;7.76;100.00
36380;BME280;22411;53.016;18.632;2022-09-20T05:36:03;100482.25;;;7.79;100.00
36380;BME280;22411;53.016;18.632;2022-09-20T05:38:49;100485.66;;;7.80;100.00
36380;BME280;22411;53.016;18.632;2022-09-20T05:47:19;100491.91;;;8.06;100.00
36380;BME280;22411;53.016;18.632;2022-09-20T05:53:34;100483.94;;;8.25;100.00
36380;BME280;22411;53.016;18.632;2022-09-20T06:01:31;100494.41;;;8.37;100.00
36380;BME280;22411;53.016;18.632;2022-09-20T06:04:37;100495.06;;;8.41;100.00
36380;BME280;22411;53.016;18.632;2022-09-20T06:07:19;100497.38;;;8.46;100.00
36380;BME280;22411;53.016;18.632;2022-09-20T06:18:31;100505.47;;;8.54;100.00
36380;BME280;22411;53.016;18.632;2022-09-20T06:21:22;100508.34;;;8.63;100.00
36380;BME280;22411;53.016;18.632;2022-09-20T06:23:59;100508.34;;;8.63;100.00
36380;BME280;22411;53.016;18.632;2022-09-20T06:26:29;100519.06;;;8.72;100.00
36380;BME280;22411;53.016;18.632;2022-09-20T06:29:02;100517.75;;;8.79;100.00
36380;BME280;22411;53.016;18.632;2022-09-20T06:31:29;100523.56;;;8.82;100.00
36380;BME280;22411;53.016;18.632;2022-09-20T06:34:02;100524.22;;;8.86;100.00
36380;BME280;22411;53.016;18.632;2022-09-20T06:36:34;100528.91;;;8.94;100.00
36380;BME280;22411;53.016;18.632;2022-09-20T06:39:48;100528.44;;;9.01;100.00
36380;BME280;22411;53.016;18.632;2022-09-20T06:42:33;100542.75;;;9.07;100.00
36380;BME280;22411;53.016;18.632;2022-09-20T06:45:00;100541.34;;;9.15;100.00
36380;BME280;22411;53.016;18.632;2022-09-20T06:47:26;100539.31;;;9.06;100.00
36380;BME280;22411;53.016;18.632;2022-09-20T06:49:52;100550.44;;;9.08;100.00
36380;BME280;22411;53.016;18.632;2022-09-20T06:52:20;100544.06;;;9.00;100.00
36380;BME280;22411;53.016;18.632;2022-09-20T06:54:50;100541.56;;;8.98;100.00
36380;BME280;22411;53.016;18.632;2022-09-20T06:57:37;100547.63;;;9.11;100.00
36380;BME280;22411;53.016;18.632;2022-09-20T07:00:04;100547.47;;;9.14;100.00
36380;BME280;22411;53.016;18.632;2022-09-20T07:02:31;100551.59;;;9.17;100.00
36380;BME280;22411;53.016;18.632;2022-09-20T07:04:57;100553.34;;;9.16;100.00
36380;BME280;22411;53.016;18.632;2022-09-20T07:07:23;100555.88;;;9.18;100.00
36380;BME280;22411;53.016;18.632;2022-09-20T07:09:50;100574.13;;;9.29;100.00
36380;BME280;22411;53.016;18.632;2022-09-20T07:12:18;100564.22;;;9.36;100.00
36380;BME280;22411;53.016;18.632;2022-09-20T07:14:45;100566.16;;;9.47;100.00
36380;BME280;22411;53.016;18.632;2022-09-20T07:17:11;100564.47;;;9.60;100.00
36380;BME280;22411;53.016;18.632;2022-09-20T07:19:39;100576.63;;;9.72;100.00
36380;BME280;22411;53.016;18.632;2022-09-20T07:22:04;100581.41;;;9.78;100.00
36380;BME280;22411;53.016;18.632;2022-09-20T07:24:30;100581.22;;;9.81;100.00
36380;BME280;22411;53.016;18.632;2022-09-20T07:27:02;100586.41;;;9.94;100.00
36380;BME280;22411;53.016;18.632;2022-09-20T07:29:30;100581.97;;;9.96;100.00
36380;BME280;22411;53.016;18.632;2022-09-20T07:31:56;100592.66;;;10.04;100.00
36380;BME280;22411;53.016;18.632;2022-09-20T07:34:23;100594.97;;;10.21;100.00
36380;BME280;22411;53.016;18.632;2022-09-20T07:36:50;100597.69;;;10.20;100.00
36380;BME280;22411;53.016;18.632;2022-09-20T07:39:17;100596.38;;;10.27;100.00
36380;BME280;22411;53.016;18.632;2022-09-20T07:41:43;100594.94;;;10.36;100.00
36380;BME280;22411;53.016;18.632;2022-09-20T07:44:15;100602.38;;;10.28;100.00
36380;BME280;22411;53.016;18.632;2022-09-20T07:46:55;100599.59;;;10.43;100.00
36380;BME280;22411;53.016;18.632;2022-09-20T07:49:22;100604.41;;;10.50;100.00
36380;BME280;22411;53.016;18.632;2022-09-20T07:51:49;100602.13;;;10.58;100.00
36380;BME280;22411;53.016;18.632;2022-09-20T07:54:15;100609.06;;;10.44;100.00
36380;BME280;22411;53.016;18.632;2022-09-20T07:56:42;100601.91;;;10.48;100.00
36380;BME280;22411;53.016;18.632;2022-09-20T07:59:08;100610.94;;;10.55;100.00
36380;BME280;22411;53.016;18.632;2022-09-20T08:01:38;100603.59;;;10.62;100.00
36380;BME280;22411;53.016;18.632;2022-09-20T08:04:06;100611.16;;;10.78;100.00
36380;BME280;22411;53.016;18.632;2022-09-20T08:06:41;100604.94;;;10.93;100.00
36380;BME280;22411;53.016;18.632;2022-09-20T08:09:08;100611.44;;;11.11;100.00
36380;BME280;22411;53.016;18.632;2022-09-20T08:11:35;100610.72;;;11.22;100.00
36380;BME280;22411;53.016;18.632;2022-09-20T08:14:02;100606.34;;;11.22;100.00
36380;BME280;22411;53.016;18.632;2022-09-20T08:16:29;100612.66;;;11.31;100.00
36380;BME280;22411;53.016;18.632;2022-09-20T08:18:57;100609.22;;;11.43;100.00
36380;BME280;22411;53.016;18.632;2022-09-20T08:21:26;100615.81;;;11.60;100.00
36380;BME280;22411;53.016;18.632;2022-09-20T08:23:52;100613.25;;;11.84;100.00
36380;BME280;22411;53.016;18.632;2022-09-20T08:26:20;100619.84;;;12.01;100.00
36380;BME280;22411;53.016;18.632;2022-09-20T08:28:51;100619.47;;;12.18;100.00
36380;BME280;22411;53.016;18.632;2022-09-20T08:31:19;100620.34;;;12.41;100.00
36380;BME280;22411;53.016;18.632;2022-09-20T08:33:46;100615.06;;;12.54;100.00
36380;BME280;22411;53.016;18.632;2022-09-20T08:36:15;100627.25;;;12.76;100.00
36380;BME280;22411;53.016;18.632;2022-09-20T08:38:42;100635.81;;;12.78;100.00
36380;BME280;22411;53.016;18.632;2022-09-20T08:43:45;100630.75;;;12.99;100.00
36380;BME280;22411;53.016;18.632;2022-09-20T08:46:15;100630.56;;;13.24;100.00
36380;BME280;22411;53.016;18.632;2022-09-20T08:48:43;100627.06;;;13.57;100.00
36380;BME280;22411;53.016;18.632;2022-09-20T08:51:13;100629.75;;;13.78;100.00
36380;BME280;22411;53.016;18.632;2022-09-20T08:53:48;100620.53;;;14.06;100.00
36380;BME280;22411;53.016;18.632;2022-09-20T08:56:16;100629.53;;;14.13;100.00
36380;BME280;22411;53.016;18.632;2022-09-20T08:58:42;100635.00;;;14.31;100.00
36380;BME280;22411;53.016;18.632;2022-09-20T09:01:19;100631.94;;;14.58;100.00
36380;BME280;22411;53.016;18.632;2022-09-20T09:03:48;100637.00;;;14.81;100.00
36380;BME280;22411;53.016;18.632;2022-09-20T09:06:18;100634.31;;;15.23;100.00
36380;BME280;22411;53.016;18.632;2022-09-20T09:08:45;100633.31;;;15.54;100.00
36380;BME280;22411;53.016;18.632;2022-09-20T09:11:15;100623.34;;;15.29;100.00
36380;BME280;22411;53.016;18.632;2022-09-20T09:13:58;100635.19;;;15.63;100.00
36380;BME280;22411;53.016;18.632;2022-09-20T09:16:31;100627.81;;;16.27;100.00
36380;BME280;22411;53.016;18.632;2022-09-20T09:19:28;100631.06;;;16.77;100.00
36380;BME280;22411;53.016;18.632;2022-09-20T09:21:59;100635.75;;;16.54;100.00
36380;BME280;22411;53.016;18.632;2022-09-20T09:24:28;100627.81;;;16.17;100.00
36380;BME280;22411;53.016;18.632;2022-09-20T09:27:26;100636.03;;;15.74;100.00
36380;BME280;22411;53.016;18.632;2022-09-20T09:29:54;100635.81;;;15.56;100.00
36380;BME280;22411;53.016;18.632;2022-09-20T09:32:28;100629.69;;;15.26;100.00
36380;BME280;22411;53.016;18.632;2022-09-20T09:35:21;100637.53;;;14.75;100.00
36380;BME280;22411;53.016;18.632;2022-09-20T09:38:17;100629.47;;;14.78;100.00
36380;BME280;22411;53.016;18.632;2022-09-20T09:41:04;100637.97;;;14.80;100.00
36380;BME280;22411;53.016;18.632;2022-09-20T09:43:32;100634.75;;;14.67;100.00
36380;BME280;22411;53.016;18.632;2022-09-20T09:48:43;100641.06;;;15.56;100.00
36380;BME280;22411;53.016;18.632;2022-09-20T09:51:15;100635.38;;;16.30;100.00
36380;BME280;22411;53.016;18.632;2022-09-20T09:53:43;100643.59;;;16.54;100.00
36380;BME280;22411;53.016;18.632;2022-09-20T10:07:13;100641.00;;;15.96;100.00
36380;BME280;22411;53.016;18.632;2022-09-20T10:18:30;100642.75;;;15.76;100.00
36380;BME280;22411;53.016;18.632;2022-09-20T10:29:58;100637.34;;;18.92;95.78
36380;BME280;22411;53.016;18.632;2022-09-20T10:32:32;100645.97;;;18.14;94.38
36380;BME280;22411;53.016;18.632;2022-09-20T10:35:22;100638.56;;;17.37;100.00
36380;BME280;22411;53.016;18.632;2022-09-20T10:38:04;100645.94;;;16.57;100.00
36380;BME280;22411;53.016;18.632;2022-09-20T10:44:08;100660.16;;;15.56;100.00
36380;BME280;22411;53.016;18.632;2022-09-20T11:06:50;100648.16;;;16.23;99.94
36380;BME280;22411;53.016;18.632;2022-09-20T11:09:25;100645.34;;;17.57;91.53
36380;BME280;22411;53.016;18.632;2022-09-20T11:12:02;100642.53;;;18.58;86.55
36380;BME280;22411;53.016;18.632;2022-09-20T11:14:37;100652.28;;;19.17;81.69
36380;BME280;22411;53.016;18.632;2022-09-20T11:17:27;100654.09;;;17.48;80.67
36380;BME280;22411;53.016;18.632;2022-09-20T11:40:35;100658.69;;;20.73;75.17
36380;BME280;22411;53.016;18.632;2022-09-20T11:43:04;100660.06;;;19.69;73.68
36380;BME280;22411;53.016;18.632;2022-09-20T11:45:32;100663.22;;;19.04;78.51
36380;BME280;22411;53.016;18.632;2022-09-20T11:48:08;100660.78;;;18.85;78.87
36380;BME280;22411;53.016;18.632;2022-09-20T11:51:03;100661.56;;;19.38;79.09
36380;BME280;22411;53.016;18.632;2022-09-20T11:53:55;100664.56;;;18.83;80.58
36380;BME280;22411;53.016;18.632;2022-09-20T11:56:30;100661.13;;;17.47;81.66
36380;BME280;22411;53.016;18.632;2022-09-20T11:59:02;100665.75;;;16.89;81.78
36380;BME280;22411;53.016;18.632;2022-09-20T12:01:34;100675.00;;;16.83;79.40
36380;BME280;22411;53.016;18.632;2022-09-20T12:04:18;100677.06;;;18.27;73.26
36380;BME280;22411;53.016;18.632;2022-09-20T12:09:35;100665.84;;;24.97;45.73
36380;BME280;22411;53.016;18.632;2022-09-20T12:12:30;100675.69;;;28.33;36.99
36380;BME280;22411;53.016;18.632;2022-09-20T12:15:00;100678.13;;;28.03;36.39
36380;BME280;22411;53.016;18.632;2022-09-20T12:26:09;100672.78;;;24.21;39.49
36380;BME280;22411;53.016;18.632;2022-09-20T12:28:37;100674.63;;;24.20;41.86
36380;BME280;22411;53.016;18.632;2022-09-20T12:36:41;100673.06;;;24.47;41.71
36380;BME280;22411;53.016;18.632;2022-09-20T12:47:01;100676.47;;;20.62;51.80
36380;BME280;22411;53.016;18.632;2022-09-20T12:49:51;100674.75;;;19.12;58.15
36380;BME280;22411;53.016;18.632;2022-09-20T12:52:57;100671.88;;;19.31;59.81
36380;BME280;22411;53.016;18.632;2022-09-20T13:03:33;100672.09;;;21.10;57.36
36380;BME280;22411;53.016;18.632;2022-09-20T13:08:43;100670.78;;;19.92;57.71
36380;BME280;22411;53.016;18.632;2022-09-20T13:13:47;100672.94;;;19.97;57.35
36380;BME280;22411;53.016;18.632;2022-09-20T13:19:12;100672.97;;;20.21;58.85
36380;BME280;22411;53.016;18.632;2022-09-20T13:21:49;100669.09;;;18.98;61.69
36380;BME280;22411;53.016;18.632;2022-09-20T13:24:18;100667.69;;;18.86;64.25
36380;BME280;22411;53.016;18.632;2022-09-20T13:26:48;100666.34;;;19.50;62.04
36380;BME280;22411;53.016;18.632;2022-09-20T13:29:24;100669.41;;;19.29;62.65
36380;BME280;22411;53.016;18.632;2022-09-20T13:31:52;100675.88;;;18.65;66.05
36380;BME280;22411;53.016;18.632;2022-09-20T13:34:23;100673.38;;;18.02;72.86
36380;BME280;22411;53.016;18.632;2022-09-20T13:36:53;100679.16;;;18.23;74.55
36380;BME280;22411;53.016;18.632;2022-09-20T13:39:32;100685.28;;;18.68;73.22
36380;BME280;22411;53.016;18.632;2022-09-20T13:42:14;100699.25;;;18.33;75.01
36380;BME280;22411;53.016;18.632;2022-09-20T13:44:45;100720.47;;;17.29;80.40
36380;BME280;22411;53.016;18.632;2022-09-20T13:47:27;100743.56;;;16.38;90.20
36380;BME280;22411;53.016;18.632;2022-09-20T13:52:47;100762.75;;;14.75;100.00
36380;BME280;22411;53.016;18.632;2022-09-20T13:55:26;100745.28;;;14.00;100.00
36380;BME280;22411;53.016;18.632;2022-09-20T13:57:54;100743.44;;;13.68;100.00
36380;BME280;22411;53.016;18.632;2022-09-20T14:00:23;100741.06;;;13.54;100.00
36380;BME280;22411;53.016;18.632;2022-09-20T14:02:51;100739.75;;;13.59;100.00
36380;BME280;22411;53.016;18.632;2022-09-20T14:05:20;100732.78;;;13.82;100.00
36380;BME280;22411;53.016;18.632;2022-09-20T14:07:49;100733.41;;;14.18;100.00
36380;BME280;22411;53.016;18.632;2022-09-20T14:10:34;100742.44;;;14.57;100.00
36380;BME280;22411;53.016;18.632;2022-09-20T14:13:04;100738.91;;;14.79;100.00
36380;BME280;22411;53.016;18.632;2022-09-20T14:15:43;100744.88;;;14.91;100.00
36380;BME280;22411;53.016;18.632;2022-09-20T14:18:17;100748.59;;;14.88;100.00
36380;BME280;22411;53.016;18.632;2022-09-20T14:20:44;100740.31;;;14.83;100.00
36380;BME280;22411;53.016;18.632;2022-09-20T14:23:21;100750.28;;;14.78;100.00
36380;BME280;22411;53.016;18.632;2022-09-20T14:26:41;100761.16;;;14.62;100.00
36380;BME280;22411;53.016;18.632;2022-09-20T14:29:26;100765.44;;;14.09;100.00
36380;BME280;22411;53.016;18.632;2022-09-20T14:31:53;100759.63;;;13.94;100.00
36380;BME280;22411;53.016;18.632;2022-09-20T14:34:20;100756.56;;;13.78;100.00
36380;BME280;22411;53.016;18.632;2022-09-20T14:36:47;100751.84;;;13.72;100.00
36380;BME280;22411;53.016;18.632;2022-09-20T14:39:16;100753.50;;;13.73;100.00
36380;BME280;22411;53.016;18.632;2022-09-20T14:41:44;100757.53;;;13.66;100.00
36380;BME280;22411;53.016;18.632;2022-09-20T14:44:40;100752.31;;;13.77;100.00
36380;BME280;22411;53.016;18.632;2022-09-20T14:47:13;100748.16;;;13.85;100.00
36380;BME280;22411;53.016;18.632;2022-09-20T14:49:42;100748.38;;;13.94;100.00
36380;BME280;22411;53.016;18.632;2022-09-20T14:52:35;100747.53;;;14.04;100.00
36380;BME280;22411;53.016;18.632;2022-09-20T14:55:16;100741.47;;;14.15;100.00
36380;BME280;22411;53.016;18.632;2022-09-20T14:57:44;100742.28;;;14.27;100.00
36380;BME280;22411;53.016;18.632;2022-09-20T15:00:12;100744.25;;;14.46;100.00
36380;BME280;22411;53.016;18.632;2022-09-20T15:02:43;100739.13;;;15.18;100.00
36380;BME280;22411;53.016;18.632;2022-09-20T15:05:19;100742.19;;;16.25;100.00
36380;BME280;22411;53.016;18.632;2022-09-20T15:07:46;100746.75;;;16.90;100.00
36380;BME280;22411;53.016;18.632;2022-09-20T15:10:13;100753.06;;;17.54;100.00
36380;BME280;22411;53.016;18.632;2022-09-20T15:12:42;100755.81;;;18.17;100.00
36380;BME280;22411;53.016;18.632;2022-09-20T15:15:13;100754.31;;;18.50;100.00
36380;BME280;22411;53.016;18.632;2022-09-20T15:17:40;100762.50;;;18.65;100.00
36380;BME280;22411;53.016;18.632;2022-09-20T15:20:19;100758.84;;;18.58;100.00
36380;BME280;22411;53.016;18.632;2022-09-20T15:22:48;100752.09;;;18.38;100.00
36380;BME280;22411;53.016;18.632;2022-09-20T15:25:19;100760.16;;;18.09;100.00
36380;BME280;22411;53.016;18.632;2022-09-20T15:27:49;100758.81;;;17.77;100.00
36380;BME280;22411;53.016;18.632;2022-09-20T15:30:18;100763.06;;;17.41;100.00
36380;BME280;22411;53.016;18.632;2022-09-20T15:32:45;100760.06;;;17.16;100.00
36380;BME280;22411;53.016;18.632;2022-09-20T15:35:12;100765.59;;;17.13;100.00
36380;BME280;22411;53.016;18.632;2022-09-20T15:37:39;100773.91;;;16.99;100.00
36380;BME280;22411;53.016;18.632;2022-09-20T15:40:07;100781.28;;;17.13;100.00
36380;BME280;22411;53.016;18.632;2022-09-20T15:42:37;100792.63;;;17.04;100.00
36380;BME280;22411;53.016;18.632;2022-09-20T15:45:09;100790.59;;;16.79;100.00
36380;BME280;22411;53.016;18.632;2022-09-20T15:47:38;100781.44;;;15.84;100.00
36380;BME280;22411;53.016;18.632;2022-09-20T15:50:06;100780.66;;;15.21;100.00
36380;BME280;22411;53.016;18.632;2022-09-20T15:52:38;100784.53;;;14.85;100.00
36380;BME280;22411;53.016;18.632;2022-09-20T15:55:07;100783.03;;;14.50;100.00
36380;BME280;22411;53.016;18.632;2022-09-20T15:57:34;100788.66;;;14.67;100.00
36380;BME280;22411;53.016;18.632;2022-09-20T16:00:00;100794.00;;;14.86;100.00
36380;BME280;22411;53.016;18.632;2022-09-20T16:02:26;100788.72;;;15.08;100.00
36380;BME280;22411;53.016;18.632;2022-09-20T16:04:54;100797.09;;;15.33;100.00
36380;BME280;22411;53.016;18.632;2022-09-20T16:07:21;100797.78;;;15.56;100.00
36380;BME280;22411;53.016;18.632;2022-09-20T16:09:55;100801.59;;;15.52;100.00
36380;BME280;22411;53.016;18.632;2022-09-20T16:12:23;100800.66;;;15.11;100.00
36380;BME280;22411;53.016;18.632;2022-09-20T16:14:56;100804.88;;;14.70;100.00
36380;BME280;22411;53.016;18.632;2022-09-20T16:17:22;100803.84;;;14.61;100.00
36380;BME280;22411;53.016;18.632;2022-09-20T16:20:08;100813.38;;;14.83;100.00
36380;BME280;22411;53.016;18.632;2022-09-20T16:22:34;100808.88;;;15.06;100.00
36380;BME280;22411;53.016;18.632;2022-09-20T16:25:00;100818.63;;;15.04;100.00
36380;BME280;22411;53.016;18.632;2022-09-20T16:27:27;100819.50;;;14.94;100.00
36380;BME280;22411;53.016;18.632;2022-09-20T16:29:54;100820.66;;;14.69;100.00
36380;BME280;22411;53.016;18.632;2022-09-20T16:32:20;100820.69;;;14.57;100.00
36380;BME280;22411;53.016;18.632;2022-09-20T16:34:46;100827.31;;;14.39;100.00
36380;BME280;22411;53.016;18.632;2022-09-20T16:37:14;100825.25;;;14.10;100.00
36380;BME280;22411;53.016;18.632;2022-09-20T16:39:50;100822.03;;;13.84;100.00
36380;BME280;22411;53.016;18.632;2022-09-20T16:42:17;100819.56;;;13.72;100.00
36380;BME280;22411;53.016;18.632;2022-09-20T16:44:44;100832.44;;;13.51;100.00
36380;BME280;22411;53.016;18.632;2022-09-20T16:47:13;100825.44;;;13.40;100.00
36380;BME280;22411;53.016;18.632;2022-09-20T16:49:45;100836.53;;;13.31;100.00
36380;BME280;22411;53.016;18.632;2022-09-20T16:52:11;100843.97;;;13.24;100.00
36380;BME280;22411;53.016;18.632;2022-09-20T16:54:37;100843.66;;;13.16;100.00
36380;BME280;22411;53.016;18.632;2022-09-20T16:57:03;100845.53;;;13.03;100.00
36380;BME280;22411;53.016;18.632;2022-09-20T16:59:29;100843.31;;;12.86;100.00
36380;BME280;22411;53.016;18.632;2022-09-20T17:01:55;100846.34;;;12.79;100.00
36380;BME280;22411;53.016;18.632;2022-09-20T17:04:21;100844.84;;;12.64;100.00
36380;BME280;22411;53.016;18.632;2022-09-20T17:06:48;100852.13;;;12.35;100.00
36380;BME280;22411;53.016;18.632;2022-09-20T17:09:15;100852.38;;;12.19;100.00
36380;BME280;22411;53.016;18.632;2022-09-20T17:11:43;100853.00;;;12.10;100.00
36380;BME280;22411;53.016;18.632;2022-09-20T17:14:11;100856.44;;;11.98;100.00
36380;BME280;22411;53.016;18.632;2022-09-20T17:16:38;100860.19;;;11.94;100.00
36380;BME280;22411;53.016;18.632;2022-09-20T17:21:36;100868.41;;;11.88;100.00
36380;BME280;22411;53.016;18.632;2022-09-20T17:24:06;100876.19;;;11.88;100.00
36380;BME280;22411;53.016;18.632;2022-09-20T17:26:42;100874.63;;;11.85;100.00
36380;BME280;22411;53.016;18.632;2022-09-20T17:29:13;100880.31;;;11.77;100.00
36380;BME280;22411;53.016;18.632;2022-09-20T17:31:43;100880.72;;;11.71;100.00
36380;BME280;22411;53.016;18.632;2022-09-20T17:34:12;100875.50;;;11.59;100.00
36380;BME280;22411;53.016;18.632;2022-09-20T17:36:41;100878.63;;;11.51;100.00
36380;BME280;22411;53.016;18.632;2022-09-20T17:39:09;100880.81;;;11.44;100.00
36380;BME280;22411;53.016;18.632;2022-09-20T17:41:44;100885.47;;;11.39;100.00
36380;BME280;22411;53.016;18.632;2022-09-20T17:44:12;100882.13;;;11.37;100.00
36380;BME280;22411;53.016;18.632;2022-09-20T17:46:40;100884.72;;;11.37;100.00
36380;BME280;22411;53.016;18.632;2022-09-20T17:49:08;100894.16;;;11.38;100.00
36380;BME280;22411;53.016;18.632;2022-09-20T17:52:00;100891.91;;;11.34;100.00
36380;BME280;22411;53.016;18.632;2022-09-20T17:54:26;100890.03;;;11.36;100.00
36380;BME280;22411;53.016;18.632;2022-09-20T17:56:53;100894.38;;;11.35;100.00
36380;BME280;22411;53.016;18.632;2022-09-20T17:59:20;100898.09;;;11.31;100.00
36380;BME280;22411;53.016;18.632;2022-09-20T18:01:48;100901.81;;;11.27;100.00
36380;BME280;22411;53.016;18.632;2022-09-20T18:04:15;100895.16;;;11.23;100.00
36380;BME280;22411;53.016;18.632;2022-09-20T18:06:47;100905.75;;;11.20;100.00